Weather observations for the past three days for
Bridgeport, Bridgeport Municipal Airport
Metric (Imperial)
Date Time (cdt) Wind (kph) Vis. (km) Weather Sky Cond. Temperature (ºC) Relative Humidity Wind Chill (°C) Heat Index (°C) Pressure Precipitation (cm)
Air Dwpt 6 hour altimeter (cm) sea level (mb) 1 hr 3 hr 6 hr
Max. Min.
06 02:55 SE 7 16.09 Fair CLR 24.2 19.6 76% 25 76 0.0
06 02:35 Calm 16.09 Fair CLR 25 19.5 72% 26 76.02 0.0
06 02:15 Calm 16.09 Fair CLR 25.4 19.7 71% 26 76.02 0.0
06 01:55 Calm 16.09 Fair CLR 25.7 19.7 70% 27 76.02 0.0
06 01:35 Calm 16.09 Fair CLR 26.5 19.5 65% 28 76.02 0.0
06 01:15 Calm 16.09 Fair CLR 27.4 19.7 63% 29 76.05 0.0
06 00:55 S 6 16.09 Fair CLR 27.9 19.6 35.8 27.9 61% 29 76.02 0.0
06 00:35 S 6 16.09 Fair CLR 28.5 19.5 58% 30 76.05 0.0
06 00:15 S 7 16.09 Fair CLR 29 19.2 56% 30 76.05 0.0
05 23:55 S 6 16.09 Fair CLR 29 19 55% 30 76.05 0.0
05 23:35 SE 7 16.09 Fair CLR 29.6 19 53% 31 76.05 0.0
05 23:15 SE 7 16.09 Fair CLR 29.8 18.6 51% 31 76.05 0.0
05 22:55 SE 9 16.09 Fair CLR 30.5 18.5 49% 32 76.02 0.0
05 22:35 SE 11 16.09 Fair CLR 30.7 18 47% 32 76.02 0.0
05 22:15 SE 11 16.09 Fair CLR 31 17 43% 31 76.02 0.0
05 21:55 SE 6 16.09 Fair CLR 30.2 16.7 44% 30 76 0.0
05 21:35 SE 6 16.09 Fair CLR 30.6 16.6 43% 31 75.97 0.0
05 21:15 SE 6 16.09 Fair CLR 31 16.5 42% 31 75.95 0.0
05 20:55 SE 6 16.09 Fair CLR 31.2 16.2 40% 31 75.95 0.0
05 20:35 SE 6 16.09 Fair CLR 31.5 16.1 39% 31 75.92 0.0
05 20:15 SE 6 16.09 Fair CLR 32.5 16 37% 32 75.9 0.0
05 19:55 SE 6 16.09 Fair CLR 33.5 16 35% 34 75.9 0.0
05 19:35 SE 6 16.09 Fair CLR 34.6 15.8 32% 35 75.9 0.0
05 19:15 SE 9 16.09 Fair CLR 35.3 15.9 31% 35 75.9 0.0
05 18:55 SE 11 16.09 Fair CLR 35.9 15.6 37.7 35.1 30% 36 75.9 0.0
05 18:35 SE 13 16.09 Fair CLR 36.3 15.4 29% 36 75.87 0.0
05 18:15 E 9 16.09 Fair CLR 36.5 15.5 29% 37 75.87 0.0
05 17:55 SE 11 16.09 Fair CLR 37 15.1 27% 37 75.87 0.0
05 17:35 E 9 16.09 Fair CLR 37.2 15.2 27% 37 75.87 0.0
05 17:15 SE 13 16.09 Fair CLR 37.5 15.4 27% 38 75.87 0.0
05 16:55 S 13 16.09 Fair CLR 36.9 15.5 28% 37 75.9 0.0
05 16:35 SE 9 16.09 Partly Cloudy SCT080 37.1 15.6 28% 37 75.9 0.0
05 16:15 SE 15 16.09 Partly Cloudy SCT080 37.4 16 28% 38 75.9 0.0
05 15:55 Calm 16.09 Fair CLR 37.1 16.1 29% 38 75.92 0.0
05 15:35 E 7 16.09 Fair CLR 37.2 16.3 29% 38 75.95 0.0
05 15:15 SE 11 16.09 Partly Cloudy SCT075 36.7 15.7 29% 37 75.97 0.0
05 14:55 E 15 16.09 Partly Cloudy SCT075 36.5 16 30% 37 75.97 0.0
05 12:55 S 15 16.09 Partly Cloudy SCT065 35.9 16.8 35.9 21.7 32% 37 76.12 0.0
05 12:35 SE 13 16.09 Fair CLR 35.7 16.8 32% 36 76.15 0.0
05 12:15 E 9 16.09 Fair CLR 34.6 17.1 35% 35 76.15 0.0
05 11:55 Calm 16.09 Partly Cloudy SCT055 34 17.8 38% 35 76.15 0.0
05 11:35 SW 7 16.09 Fair CLR 33.4 18 40% 34 76.17 0.0
05 11:15 S 6 16.09 Fair CLR 33 18.6 42% 34 76.17 0.0
05 10:55 N 7 16.09 Fair CLR 32.6 19.4 46% 34 76.17 0.0
05 10:35 W 6 16.09 Fair CLR 31.8 19.6 48% 34 76.17 0.0
05 10:15 W 7 16.09 Fair CLR 31.4 20.3 52% 34 76.17 0.0
05 09:55 NW 6 16.09 Fair CLR 30.3 20.5 56% 33 76.17 0.0
05 09:35 SW 6 16.09 Fair CLR 29.5 20.5 58% 32 76.17 0.0
05 09:15 W 6 16.09 Fair CLR 28.5 20.5 62% 30 76.17 0.0
05 08:55 Calm 16.09 Fair CLR 27.4 20.6 66% 29 76.17 0.0
05 08:35 Calm 16.09 Fair CLR 25.7 20.5 73% 27 76.15 0.0
05 08:15 Calm 16.09 Fair CLR 24.4 19.9 76% 25 76.15 0.0
05 07:55 Calm 16.09 Fair CLR 23.1 19.7 81% 76.15 0.0
05 07:35 Calm 16.09 Fair CLR 21.9 19.2 85% 76.12 0.0
05 07:15 Calm 16.09 Fair CLR 22 19.2 84% 76.12 0.0
05 06:55 Calm 16.09 Fair CLR 22.6 19.7 28.4 22.5 84% 76.12 0.0
05 06:35 Calm 16.09 Fair CLR 22.6 19.3 82% 76.1 0.0
05 06:15 Calm 16.09 Fair CLR 22.7 19.5 82% 76.1 0.0
05 05:55 Calm 16.09 Fair CLR 23.2 19.5 80% 76.1 0.0
05 05:35 Calm 16.09 Fair CLR 23.4 19.4 78% 76.07 0.0
05 05:15 Calm 16.09 Fair CLR 25.6 19.9 71% 27 76.07 0.0
05 04:55 S 7 16.09 Fair CLR 26.1 20.2 70% 27 76.07 0.0
05 04:35 S 7 16.09 Fair CLR 26.2 20.2 70% 28 76.07 0.0
05 04:15 S 7 16.09 Fair CLR 26.2 20.1 69% 28 76.07 0.0
05 03:55 S 6 16.09 Fair CLR 26.5 19.8 67% 28 76.07 0.0
05 03:35 S 7 16.09 Fair CLR 26.5 19.5 65% 28 76.07 0.0
05 03:15 S 6 16.09 Fair CLR 26.6 19.3 64% 28 76.07 0.0
05 02:55 S 6 16.09 Fair CLR 26.7 19 63% 28 76.07 0.0
05 02:35 S 7 16.09 Fair CLR 27 18.9 61% 28 76.07 0.0
05 02:15 S 7 16.09 Fair CLR 26.9 18.6 60% 28 76.1 0.0
05 01:55 S 6 16.09 Fair CLR 27 18.5 60% 28 76.07 0.0
05 01:35 S 6 16.09 Fair CLR 27.5 18.5 58% 29 76.1 0.0
05 01:15 S 6 16.09 Fair CLR 28 18.4 56% 29 76.1 0.0
05 00:55 S 6 16.09 Fair CLR 28.5 18.3 35.6 28.5 54% 29 76.07 0.0
05 00:35 S 7 16.09 Fair CLR 29.1 18.2 52% 30 76.07 0.0
05 00:15 S 9 16.09 Fair CLR 29.7 18 49% 31 76.05 0.0
04 23:55 S 15 16.09 Fair CLR 30.1 17.9 48% 31 76.05 0.0
04 23:35 S 9 16.09 Fair CLR 30.2 17.7 47% 31 76.05 0.0
04 23:15 S 11 16.09 Fair CLR 30.5 17.8 47% 31 76.05 0.0
04 22:55 SE 11 16.09 Fair CLR 30.7 17.9 46% 31 76.05 0.0
04 22:35 S 11 16.09 Fair CLR 31 17.9 46% 32 76.02 0.0
04 22:15 S 11 16.09 Fair CLR 31.1 17.8 45% 32 76.02 0.0
04 21:55 SE 7 16.09 Fair CLR 31.2 17.7 44% 32 76.02 0.0
04 21:35 S 7 16.09 Fair CLR 31.5 17.5 43% 32 76 0.0
04 21:15 S 6 16.09 Fair CLR 31.5 17.3 43% 32 75.97 0.0
04 20:55 SE 6 16.09 Fair CLR 31.8 17 41% 32 75.95 0.0
04 20:35 S 6 16.09 Fair CLR 32.5 16.7 39% 33 75.92 0.0
04 20:15 S 7 16.09 Fair CLR 33.4 16.6 37% 34 75.92 0.0
04 19:55 SE 7 16.09 Fair CLR 34.1 16.7 35% 34 75.9 0.0
04 19:35 S 9 16.09 Fair CLR 34.7 16.7 34% 35 75.9 0.0
04 19:15 S 13 16.09 Fair CLR 35.2 17 34% 36 75.9 0.0
04 18:55 SE 11 16.09 Fair CLR 35.7 17 37.2 34.5 33% 36 75.87 0.0
04 18:35 S 13 16.09 Fair CLR 36.1 16.7 32% 37 75.87 0.0
04 18:15 SE 15 G 28 16.09 Fair CLR 36.2 17 32% 37 75.87 0.0
04 17:55 SE 15 16.09 Fair CLR 36.6 17.2 32% 38 75.87 0.0
04 17:35 SE 11 16.09 Fair CLR 35.5 17.8 35% 37 75.9 0.0
04 17:15 S 13 16.09 Fair CLR 36.8 17.1 31% 38 75.9 0.0
04 16:55 S 9 G 30 16.09 Fair CLR 36.8 16.5 30% 37 75.9 0.0
04 16:35 S 15 G 28 16.09 Fair CLR 36.6 16.3 30% 37 75.92 0.0
04 16:15 S 17 16.09 Fair CLR 36.9 16.5 30% 38 75.92 0.0
04 15:55 SE 20 G 26 16.09 Fair CLR 36.7 16.6 30% 37 75.95 0.0
04 15:35 S 17 16.09 Fair CLR 36.8 16.9 31% 38 75.95 0.0
04 15:15 S 20 G 26 16.09 Fair CLR 36.8 16.5 30% 37 75.97 0.0
04 14:55 SE 22 G 30 16.09 Fair CLR 36.6 16.2 30% 37 76 0.0
04 14:35 S 22 G 28 16.09 Fair CLR 37.2 16.1 29% 38 76.02 0.0
04 14:15 S 17 16.09 Fair CLR 35.8 16.8 32% 36 76.02 0.0
04 13:55 SE 20 16.09 Fair CLR 35.1 18.6 38% 37 76.02 0.0
04 13:35 SE 15 16.09 Fair CLR 35 19.3 40% 37 76.05 0.0
04 13:15 S 15 G 33 16.09 Fair CLR 35.5 18 35% 37 76.07 0.0
04 12:55 SE 13 G 30 16.09 Fair CLR 34.8 18.2 35.9 25.6 37% 36 76.07 0.0
04 12:35 S 20 G 30 16.09 Fair CLR 35.7 15.8 30% 36 76.1 0.0
04 12:15 SW 15 G 28 16.09 Fair CLR 34.8 15.4 31% 35 76.1 0.0
04 11:55 S 13 G 26 16.09 Fair CLR 34.5 15.9 33% 35 76.12 0.0
04 11:35 S 15 16.09 Fair CLR 33.8 16.8 36% 34 76.15 0.0
04 11:15 S 11 16.09 Fair CLR 32.2 19.9 48% 34 76.12 0.0
04 10:55 S 11 16.09 Partly Cloudy SCT100 30.9 20.5 54% 33 76.15 0.0
04 10:35 SE 13 16.09 Partly Cloudy SCT100 30.2 20.6 56% 33 76.15 0.0
04 10:15 S 13 16.09 Partly Cloudy SCT100 30.5 18.9 50% 32 76.15 0.0
04 09:55 S 13 16.09 Partly Cloudy SCT100 29.3 20.3 58% 31 76.15 0.0
04 09:35 S 11 16.09 Partly Cloudy SCT100 27.4 21 68% 29 76.15 0.0
04 09:15 S 13 16.09 Mostly Cloudy BKN100 27.1 20.7 68% 29 76.15 0.0
04 08:55 S 11 16.09 Fair CLR 26.8 20 66% 28 76.15 0.0
04 08:35 S 6 16.09 Partly Cloudy SCT085 SCT110 27 19.8 65% 28 76.12 0.0
04 08:15 SE 6 16.09 Mostly Cloudy BKN085 BKN110 26.8 19.5 64% 28 76.1 0.0
04 07:55 S 9 16.09 Partly Cloudy SCT085 SCT100 26.1 19.4 67% 27 76.07 0.0
04 07:35 S 7 16.09 Partly Cloudy SCT085 SCT100 26 19.2 66% 27 76.07 0.0
04 07:15 S 11 16.09 Partly Cloudy SCT110 25.6 20.1 72% 27 76.07 0.0
04 06:55 S 7 16.09 Partly Cloudy SCT110 25.6 20.7 27 25.5 74% 27 76.07 0.0
04 06:35 SE 7 16.09 Partly Cloudy SCT110 25.6 21.1 76% 27 76.05 0.0
04 06:15 SE 6 16.09 Fair CLR 25.7 21 75% 27 76.05 0.0
04 05:55 S 7 16.09 Fair CLR 26 21 74% 27 76.02 0.0
04 05:35 S 6 16.09 Fair CLR 25.6 21.1 76% 27 76.02 0.0
04 05:15 Calm 16.09 Fair CLR 25.7 21.1 76% 27 76.05 0.0
04 04:55 SE 6 16.09 Fair CLR 25.6 21 76% 27 76.02 0.0
04 04:35 S 7 16.09 Fair CLR 26.1 21 74% 28 76.02 0.0
04 04:15 SE 9 16.09 Fair CLR 26.5 21 72% 28 76.02 0.0
04 03:55 S 11 16.09 Partly Cloudy SCT085 26.6 21 71% 28 76 0.0
04 03:35 S 11 16.09 Partly Cloudy SCT085 26.7 21 71% 28 76 0.0
04 03:15 S 11 16.09 Partly Cloudy SCT085 26.5 21 72% 28 76 0.0
04 02:55 S 11 16.09 Partly Cloudy SCT085 26.3 21 73% 28 76.02 0.0
04 02:35 S 13 16.09 Partly Cloudy SCT085 26.3 21 73% 28 76.02 0.0
04 02:15 S 9 16.09 Fair CLR 26.3 20.9 72% 28 76.02 0.0
04 01:55 S 15 16.09 Fair CLR 26.5 20.6 70% 28 76.02 0.0
04 01:35 SE 13 16.09 Fair CLR 26.7 20.3 68% 28 76.02 0.0
04 01:15 SE 15 G 26 16.09 Fair CLR 27 20.2 66% 29 76.02 0.0
04 00:55 SE 17 16.09 Fair CLR 27 20 33 27 66% 29 76.02 0.0
04 00:35 SE 15 16.09 Fair CLR 27 19.9 65% 28 76.05 0.0
04 00:15 SE 9 16.09 Partly Cloudy SCT075 27.3 19.6 63% 29 76.02 0.0
03 23:55 SE 13 16.09 Partly Cloudy SCT075 27.7 19.5 61% 29 76.05 0.0
03 23:35 SE 15 16.09 Partly Cloudy SCT070 27.9 19.6 61% 29 76.02 0.0
03 23:15 SE 13 16.09 Fair CLR 28.1 19.7 60% 30 76.02 0.0
03 22:55 SE 15 16.09 Partly Cloudy SCT070 SCT080 28.3 19.3 58% 30 76.02 0.0
03 22:35 SE 11 G 26 16.09 Overcast SCT070 OVC080 28.6 18.8 55% 30 76.02 0.0
03 22:15 SE 17 G 28 16.09 Partly Cloudy SCT070 28.9 18.5 53% 30 76.02 0.0
03 21:55 SE 17 G 30 16.09 Fair CLR 29.3 18.9 54% 31 76 0.0
03 21:35 SE 15 G 26 16.09 Fair CLR 29.6 20 56% 31 75.97 0.0
03 21:15 SE 13 16.09 Fair CLR 29.8 20.5 57% 32 75.95 0.0
03 20:55 SE 17 G 26 16.09 Fair CLR 30.1 20.8 57% 33 75.92 0.0
03 20:35 SE 19 G 28 16.09 Fair CLR 30.5 21.1 57% 33 75.9 0.0
03 20:15 SE 15 16.09 Fair CLR 30.9 21.2 56% 34 75.87 0.0
03 19:55 SE 11 G 28 16.09 Fair CLR 31.2 21.2 55% 34 75.87 0.0
03 19:35 SE 20 G 26 16.09 Fair CLR 31.8 21.5 54% 35 75.84 0.0
03 19:15 SE 22 G 28 16.09 Fair CLR 32.3 21.5 53% 36 75.84 0.0
03 18:55 SE 20 G 30 16.09 Fair CLR 33 21.5 37.3 32.6 51% 37 75.84 0.0
03 18:35 SE 20 G 28 16.09 Fair CLR 33.3 21.5 50% 37 75.82 0.0
03 18:15 SE 17 G 30 16.09 Fair CLR 34.1 21.5 48% 38 75.79 0.0
03 17:55 SE 22 G 30 16.09 Fair CLR 34.6 21.4 46% 38 75.82 0.0
03 17:35 SE 20 G 30 16.09 Fair CLR 35 21.4 45% 39 75.79 0.0
03 17:15 SE 24 G 35 16.09 Fair CLR 36 20.8 41% 40 75.79 0.0
03 16:55 SE 20 16.09 Fair CLR 36.4 20.6 40% 40 75.79 0.0
03 16:35 SE 19 G 26 16.09 Fair CLR 36.5 20.4 39% 40 75.79 0.0
03 16:15 SE 22 G 28 16.09 Fair CLR 37.1 20.1 37% 40 75.79 0.0
03 15:55 SE 13 16.09 Fair CLR 36.5 19.3 36% 39 75.82 0.0
03 15:35 E 9 16.09 Partly Cloudy SCT065 36.8 19.2 36% 39 75.84 0.0
03 15:15 SE 15 16.09 Fair CLR 36.6 19.3 36% 39 75.84 0.0
03 14:55 S 7 16.09 Fair CLR 36.4 19.5 37% 39 75.87 0.0
03 14:35 S 9 16.09 Fair CLR 35.9 19.9 39% 39 75.9 0.0
03 14:15 S 15 8.05 Fair with Haze CLR 35.7 20 40% 38 75.92 0.0
03 13:55 SE 9 16.09 Fair CLR 34.3 20 43% 37 75.95 0.0
03 13:35 E 13 16.09 Fair CLR 34.1 20.7 45% 37 75.97 0.0
03 13:15 E 13 16.09 Fair CLR 34 21 47% 37 76 0.0
03 12:55 SE 15 16.09 Fair CLR 32.6 21.1 33.5 22.4 51% 36 76.02 0.0
03 12:35 SE 17 16.09 Fair CLR 33.1 21 49% 36 76.02 0.0
03 12:15 SE 19 16.09 Fair CLR 33.2 21.1 49% 36 76.05 0.0
03 11:55 SE 13 16.09 Fair CLR 33.3 20.3 46% 36 76.05 0.0
03 11:35 S 7 16.09 Fair CLR 32.1 20.6 51% 35 76.05 0.0
03 11:15 S 13 16.09 Fair CLR 30.9 20.8 55% 33 76.07 0.0
03 10:55 SE 11 16.09 Fair CLR 30.7 20.9 56% 33 76.07 0.0
03 10:35 E 11 16.09 Fair CLR 30.1 20.8 57% 33 76.07 0.0
03 10:15 SE 11 16.09 Fair CLR 29.7 20.8 59% 32 76.07 0.0
03 09:55 E 11 16.09 Fair CLR 29 20.8 61% 31 76.07 0.0
03 09:35 SE 11 16.09 Fair CLR 28.4 20.8 63% 31 76.07 0.0
03 09:15 S 7 16.09 Fair CLR 27.5 20.7 67% 29 76.07 0.0
03 08:55 SE 9 16.09 Fair CLR 26.5 20.5 70% 28 76.07 0.0
03 08:35 SE 7 16.09 Fair CLR 25.7 20.3 72% 27 76.07 0.0
03 08:15 SE 7 16.09 Fair CLR 25 20.2 75% 26 76.1 0.0
03 07:55 SE 7 16.09 Fair CLR 23.9 20 79% 24 76.07 0.0
03 07:35 Calm 16.09 Fair CLR 23.2 20 82% 76.07 0.0
03 07:15 E 6 16.09 Fair CLR 23 20 83% 76.07 0.0
03 06:55 Calm 16.09 Fair CLR 22.5 19.6 28.1 22.1 84% 76.05 0.0
03 06:35 E 6 16.09 Fair CLR 22.4 19.5 84% 76.02 0.0
03 06:15 Calm 16.09 Fair CLR 22.6 19.3 82% 76.02 0.0
03 05:55 Calm 16.09 Fair CLR 22.6 19.3 82% 76.02 0.0
03 05:35 Calm 16.09 Fair CLR 23 19.4 80% 76.02 0.0
03 05:15 E 6 16.09 Fair CLR 22.5 19 81% 76.02 0.0
03 04:55 Calm 16.09 Fair CLR 22.8 19 79% 76.02 0.0
03 04:35 Calm 16.09 Fair CLR 22.2 18.7 81% 76.05 0.0
03 04:15 Calm 16.09 Fair CLR 22.3 18.7 80% 76.02 0.0
03 03:55 Calm 16.09 Fair CLR 23.2 19 77% 76.05 0.0
03 03:35 Calm 16.09 Fair CLR 22.8 18.8 78% 76.05 0.0
03 03:15 Calm 16.09 Fair CLR 23.7 19 75% 76.05 0.0
Date Time (cdt) Wind (kph) Vis. (km) Weather Sky Cond. Air Dwpt Max. Min. Relative Humidity Wind Chill (°C) Heat Index (°C) altimeter (cm) sea level (mb) 1 hr 3 hr 6 hr
6 hour
Temperature (ºC) Pressure Precipitation (cm)